createdAt,value
2023-05-09T00:02:08.056Z,94406.63
2023-05-09T00:04:35.488Z,94403.88
2023-05-09T00:07:02.316Z,94399.41
2023-05-09T00:09:29.068Z,94397.53
2023-05-09T00:11:55.979Z,94393.63
2023-05-09T00:14:22.664Z,94398.41
2023-05-09T00:16:49.483Z,94398.94
2023-05-09T00:19:16.251Z,94394.09
2023-05-09T00:21:42.970Z,94392.25
2023-05-09T00:24:09.542Z,94387.00
2023-05-09T00:26:36.130Z,94388.19
2023-05-09T00:29:02.719Z,94394.50
2023-05-09T00:31:29.359Z,94393.25
2023-05-09T00:33:56.131Z,94386.50
2023-05-09T00:36:23.438Z,94386.28
2023-05-09T00:38:50.100Z,94389.50
2023-05-09T00:41:18.023Z,94389.47
2023-05-09T00:43:44.661Z,94386.56
2023-05-09T00:46:11.812Z,94381.97
2023-05-09T00:48:38.565Z,94385.78
2023-05-09T00:51:05.300Z,94392.97
2023-05-09T00:53:32.535Z,94383.09
2023-05-09T00:56:00.614Z,94386.56
2023-05-09T00:58:27.434Z,94382.31
2023-05-09T01:00:54.046Z,94385.78
2023-05-09T01:03:20.856Z,94390.63
2023-05-09T01:05:58.589Z,94388.34
2023-05-09T01:08:31.266Z,94377.69
2023-05-09T01:11:04.840Z,94372.84
2023-05-09T01:14:06.314Z,94379.06
2023-05-09T01:16:47.406Z,94379.97
2023-05-09T01:19:46.033Z,94371.06
2023-05-09T01:22:16.297Z,94373.00
2023-05-09T01:25:01.807Z,94380.88
2023-05-09T01:27:51.104Z,94371.06
2023-05-09T01:30:20.030Z,94371.78
2023-05-09T01:32:51.460Z,94382.19
2023-05-09T01:35:21.642Z,94376.22
2023-05-09T01:37:51.011Z,94378.22
2023-05-09T01:40:20.825Z,94373.66
2023-05-09T01:43:07.142Z,94366.88
2023-05-09T01:45:34.867Z,94384.06
2023-05-09T01:48:02.967Z,94375.50
2023-05-09T01:50:30.748Z,94378.38
2023-05-09T01:52:59.687Z,94383.13
2023-05-09T01:55:34.194Z,94382.34
2023-05-09T01:58:01.984Z,94386.34
2023-05-09T02:00:29.148Z,94375.09
2023-05-09T02:02:58.358Z,94392.16
2023-05-09T02:05:28.360Z,94374.97
2023-05-09T02:08:00.774Z,94380.88
2023-05-09T02:10:28.768Z,94379.41
2023-05-09T02:12:56.288Z,94393.34
2023-05-09T02:15:24.303Z,94389.38
2023-05-09T02:17:50.930Z,94382.81
2023-05-09T02:20:19.786Z,94380.31
2023-05-09T02:22:47.848Z,94374.47
2023-05-09T02:25:18.665Z,94388.16
2023-05-09T02:27:46.789Z,94380.50
2023-05-09T02:30:23.473Z,94386.38
2023-05-09T02:32:57.396Z,94387.22
2023-05-09T02:35:26.100Z,94376.91
2023-05-09T02:37:53.498Z,94379.19
2023-05-09T02:40:20.862Z,94383.31
2023-05-09T02:42:47.452Z,94376.28
2023-05-09T02:45:14.424Z,94379.31
2023-05-09T02:47:41.224Z,94377.34
2023-05-09T02:50:08.351Z,94376.91
2023-05-09T02:52:35.049Z,94377.84
2023-05-09T02:55:02.526Z,94375.34
2023-05-09T02:57:29.185Z,94376.00
2023-05-09T02:59:55.889Z,94379.25
2023-05-09T03:02:23.885Z,94382.78
2023-05-09T03:04:50.730Z,94383.97
2023-05-09T03:07:17.385Z,94390.84
2023-05-09T03:09:44.050Z,94387.09
2023-05-09T03:12:10.962Z,94382.88
2023-05-09T03:14:37.641Z,94385.56
2023-05-09T03:17:04.281Z,94385.41
2023-05-09T03:19:30.961Z,94388.91
2023-05-09T03:21:57.598Z,94405.44
2023-05-09T03:24:26.722Z,94411.44
2023-05-09T03:26:53.320Z,94409.19
2023-05-09T03:29:20.025Z,94407.78
2023-05-09T03:31:46.902Z,94411.44
2023-05-09T03:34:15.319Z,94411.63
2023-05-09T03:36:43.720Z,94412.13
2023-05-09T03:39:10.810Z,94419.22
2023-05-09T03:41:37.725Z,94417.78
2023-05-09T03:44:05.164Z,94414.44
2023-05-09T03:46:31.833Z,94418.41
2023-05-09T03:48:58.582Z,94419.91
2023-05-09T03:51:25.684Z,94432.50
2023-05-09T03:53:52.423Z,94434.09
2023-05-09T03:56:19.082Z,94424.94
2023-05-09T03:58:45.717Z,94430.03
2023-05-09T04:01:12.354Z,94436.97
2023-05-09T04:03:39.266Z,94432.31
2023-05-09T04:06:06.212Z,94433.97
2023-05-09T04:08:33.084Z,94433.56
2023-05-09T04:10:59.696Z,94437.28
2023-05-09T04:13:26.505Z,94435.59
2023-05-09T04:15:53.211Z,94438.09
2023-05-09T04:18:19.855Z,94441.19
2023-05-09T04:20:46.470Z,94433.31
2023-05-09T04:23:13.159Z,94441.28
2023-05-09T04:25:40.094Z,94448.13
2023-05-09T04:28:06.679Z,94429.72
2023-05-09T04:30:33.332Z,94427.06
2023-05-09T04:33:00.049Z,94427.31
2023-05-09T04:35:27.250Z,94428.00
2023-05-09T04:37:53.952Z,94432.50
2023-05-09T04:40:20.596Z,94433.13
2023-05-09T04:42:47.187Z,94435.09
2023-05-09T04:45:14.549Z,94435.72
2023-05-09T04:47:41.345Z,94432.59
2023-05-09T04:50:08.417Z,94438.03
2023-05-09T04:52:35.051Z,94439.13
2023-05-09T04:55:02.383Z,94435.50
2023-05-09T04:57:29.059Z,94436.28
2023-05-09T04:59:55.750Z,94442.88
2023-05-09T05:02:22.693Z,94432.63
2023-05-09T05:04:49.530Z,94431.72
2023-05-09T05:07:16.112Z,94436.63
2023-05-09T05:09:42.729Z,94439.88
2023-05-09T05:12:09.881Z,94435.53
2023-05-09T05:14:37.012Z,94438.25
2023-05-09T05:17:03.611Z,94435.94
2023-05-09T05:19:30.368Z,94429.88
2023-05-09T05:21:56.978Z,94435.53
2023-05-09T05:24:23.603Z,94433.97
2023-05-09T05:26:50.330Z,94439.03
2023-05-09T05:29:17.888Z,94446.47
2023-05-09T05:31:44.584Z,94445.31
2023-05-09T05:34:11.349Z,94440.75
2023-05-09T05:36:38.051Z,94444.56
2023-05-09T05:39:04.636Z,94434.38
2023-05-09T05:41:31.440Z,94437.16
2023-05-09T05:43:58.048Z,94440.72
2023-05-09T05:46:24.739Z,94442.06
2023-05-09T05:48:51.453Z,94446.38
2023-05-09T05:51:18.133Z,94442.41
2023-05-09T05:53:44.771Z,94445.91
2023-05-09T05:56:11.455Z,94446.94
2023-05-09T05:58:38.350Z,94444.13
2023-05-09T06:01:05.149Z,94457.31
2023-05-09T06:03:32.238Z,94451.56
2023-05-09T06:05:59.390Z,94447.09
2023-05-09T06:08:25.988Z,94451.53
2023-05-09T06:10:52.608Z,94448.56
2023-05-09T06:13:19.336Z,94449.63
2023-05-09T06:15:46.006Z,94448.81
2023-05-09T06:18:12.780Z,94449.44
2023-05-09T06:20:39.524Z,94443.56
2023-05-09T06:23:06.122Z,94452.03
2023-05-09T06:25:32.733Z,94453.38
2023-05-09T06:27:59.309Z,94444.59
2023-05-09T06:30:27.025Z,94448.59
2023-05-09T06:32:54.881Z,94455.78
2023-05-09T06:35:21.856Z,94449.47
2023-05-09T06:37:49.135Z,94446.28
2023-05-09T06:40:17.030Z,94443.59
2023-05-09T06:42:43.804Z,94454.09
2023-05-09T06:45:11.207Z,94450.84
2023-05-09T06:47:37.868Z,94448.38
2023-05-09T06:50:04.765Z,94450.22
2023-05-09T06:52:31.496Z,94443.19
2023-05-09T06:54:58.152Z,94450.53
2023-05-09T06:57:38.213Z,94451.53
2023-05-09T07:00:05.828Z,94451.19
2023-05-09T07:02:32.584Z,94445.81
2023-05-09T07:04:59.327Z,94454.19
2023-05-09T07:07:26.047Z,94450.53
2023-05-09T07:09:55.264Z,94438.06
2023-05-09T07:12:27.422Z,94438.47
2023-05-09T07:14:54.014Z,94442.47
2023-05-09T07:17:23.373Z,94439.94
2023-05-09T07:19:50.944Z,94444.31
2023-05-09T07:22:17.668Z,94461.63
2023-05-09T07:24:44.635Z,94457.44
2023-05-09T07:27:11.605Z,94457.16
2023-05-09T07:29:38.405Z,94441.97
2023-05-09T07:32:05.320Z,94448.59
2023-05-09T07:34:32.009Z,94443.47
2023-05-09T07:36:58.785Z,94446.81
2023-05-09T07:39:25.701Z,94448.19
2023-05-09T07:41:52.321Z,94447.03
2023-05-09T07:44:18.907Z,94461.75
2023-05-09T07:46:45.560Z,94458.13
2023-05-09T07:49:12.156Z,94453.19
2023-05-09T07:51:38.869Z,94452.25
2023-05-09T07:54:05.729Z,94446.97
2023-05-09T07:56:32.453Z,94450.78
2023-05-09T07:58:59.049Z,94442.63
2023-05-09T08:01:25.676Z,94441.44
2023-05-09T08:03:52.491Z,94438.69
2023-05-09T08:06:19.366Z,94436.16
2023-05-09T08:08:46.107Z,94437.63
2023-05-09T08:11:12.655Z,94437.97
2023-05-09T08:13:39.367Z,94433.69
2023-05-09T08:16:06.714Z,94441.56
2023-05-09T08:18:33.298Z,94445.31
2023-05-09T08:21:00.008Z,94443.56
2023-05-09T08:23:26.920Z,94440.94
2023-05-09T08:25:54.689Z,94441.03
2023-05-09T08:28:24.304Z,94447.03
2023-05-09T08:30:52.092Z,94447.34
2023-05-09T08:33:19.238Z,94442.53
2023-05-09T08:35:46.033Z,94439.09
2023-05-09T08:38:12.623Z,94435.53
2023-05-09T08:40:41.073Z,94444.09
2023-05-09T08:43:08.100Z,94442.75
2023-05-09T08:45:58.438Z,94435.72
2023-05-09T08:48:25.906Z,94431.88
2023-05-09T08:50:53.277Z,94429.38
2023-05-09T08:53:21.570Z,94431.47
2023-05-09T08:55:49.503Z,94437.19
2023-05-09T08:58:17.195Z,94435.34
2023-05-09T09:00:44.180Z,94437.75
2023-05-09T09:03:11.155Z,94429.34
2023-05-09T09:05:42.508Z,94437.88
2023-05-09T09:08:11.190Z,94432.41
2023-05-09T09:10:42.730Z,94440.00
2023-05-09T09:13:11.450Z,94434.88
2023-05-09T09:15:40.621Z,94429.44
2023-05-09T09:18:10.049Z,94435.03
2023-05-09T09:20:49.954Z,94439.63
2023-05-09T09:23:22.093Z,94440.91
2023-05-09T09:25:49.145Z,94443.41
2023-05-09T09:28:15.873Z,94434.06
2023-05-09T09:30:48.080Z,94432.19
2023-05-09T09:33:21.941Z,94442.44
2023-05-09T09:35:56.953Z,94454.44
2023-05-09T09:38:24.590Z,94442.41
2023-05-09T09:40:58.736Z,94442.69
2023-05-09T09:43:29.294Z,94438.53
2023-05-09T09:45:57.290Z,94438.81
2023-05-09T09:48:25.736Z,94443.06
2023-05-09T09:50:54.956Z,94446.22
2023-05-09T09:53:21.964Z,94436.09
2023-05-09T09:55:53.295Z,94443.69
2023-05-09T09:58:25.156Z,94450.56
2023-05-09T10:01:09.114Z,94448.59
2023-05-09T10:03:41.222Z,94445.03
2023-05-09T10:06:12.459Z,94447.06
2023-05-09T10:08:40.214Z,94430.00
2023-05-09T10:11:07.391Z,94431.81
2023-05-09T10:13:36.475Z,94432.03
2023-05-09T10:16:04.342Z,94425.13
2023-05-09T10:18:31.902Z,94425.53
2023-05-09T10:21:03.947Z,94427.69
2023-05-09T10:23:32.866Z,94428.00
2023-05-09T10:26:16.600Z,94420.88
2023-05-09T10:28:45.750Z,94420.72
2023-05-09T10:31:18.146Z,94417.75
2023-05-09T10:33:49.204Z,94426.50
2023-05-09T10:36:21.404Z,94418.00
2023-05-09T10:38:49.424Z,94416.22
2023-05-09T10:41:18.790Z,94411.94
2023-05-09T10:43:46.109Z,94410.22
2023-05-09T10:46:13.683Z,94412.75
2023-05-09T10:48:42.204Z,94413.16
2023-05-09T10:51:09.574Z,94408.84
2023-05-09T10:53:45.189Z,94403.09
2023-05-09T10:56:31.862Z,94406.78
2023-05-09T10:58:59.493Z,94402.66
2023-05-09T11:01:37.270Z,94405.41
2023-05-09T11:04:13.033Z,94398.09
2023-05-09T11:06:44.069Z,94405.94
2023-05-09T11:09:33.481Z,94400.28
2023-05-09T11:12:06.099Z,94399.97
2023-05-09T11:14:44.780Z,94406.56
2023-05-09T11:17:13.979Z,94397.81
2023-05-09T11:19:46.319Z,94411.94
2023-05-09T11:22:32.181Z,94414.00
2023-05-09T11:25:07.710Z,94405.81
2023-05-09T11:27:40.098Z,94407.94
2023-05-09T11:30:08.135Z,94416.50
2023-05-09T11:33:00.935Z,94409.31
2023-05-09T11:35:28.062Z,94399.53
2023-05-09T11:38:05.630Z,94403.78
2023-05-09T11:40:34.069Z,94404.50
2023-05-09T11:43:01.448Z,94403.50
2023-05-09T11:45:33.206Z,94398.31
2023-05-09T11:48:01.252Z,94396.22
2023-05-09T11:50:28.741Z,94406.69
2023-05-09T11:52:55.391Z,94411.75
2023-05-09T11:55:23.016Z,94404.72
2023-05-09T11:57:54.131Z,94402.59
2023-05-09T12:00:23.634Z,94407.28
2023-05-09T12:02:51.365Z,94401.22
2023-05-09T12:05:20.267Z,94404.34
2023-05-09T12:07:47.828Z,94405.44
2023-05-09T12:10:17.161Z,94410.88
2023-05-09T12:12:46.690Z,94404.66
2023-05-09T12:15:14.529Z,94411.22
2023-05-09T12:17:45.306Z,94406.41
2023-05-09T12:20:12.254Z,94407.69
2023-05-09T12:22:43.101Z,94409.72
2023-05-09T12:25:11.470Z,94405.19
2023-05-09T12:27:39.619Z,94409.25
2023-05-09T12:30:16.084Z,94406.34
2023-05-09T12:32:43.885Z,94405.63
2023-05-09T12:35:11.412Z,94405.84
2023-05-09T12:37:38.475Z,94398.63
2023-05-09T12:40:06.560Z,94410.81
2023-05-09T12:42:35.016Z,94399.91
2023-05-09T12:45:05.163Z,94397.25
2023-05-09T12:47:32.435Z,94398.56
2023-05-09T12:50:03.002Z,94389.28
2023-05-09T12:52:54.589Z,94390.69
2023-05-09T12:55:28.582Z,94383.41
2023-05-09T12:58:03.563Z,94383.69
2023-05-09T13:00:44.893Z,94383.53
2023-05-09T13:03:29.666Z,94386.03
2023-05-09T13:06:04.777Z,94376.59
2023-05-09T13:08:32.010Z,94378.50
2023-05-09T13:11:11.922Z,94370.66
2023-05-09T13:13:42.534Z,94368.44
2023-05-09T13:16:11.491Z,94371.91
2023-05-09T13:18:38.769Z,94366.88
2023-05-09T13:21:05.403Z,94352.16
2023-05-09T13:23:32.014Z,94361.50
2023-05-09T13:25:58.607Z,94352.19
2023-05-09T13:28:25.220Z,94351.72
2023-05-09T13:30:51.940Z,94352.16
2023-05-09T13:33:26.013Z,94341.56
2023-05-09T13:35:53.277Z,94359.44
2023-05-09T13:38:19.976Z,94347.88
2023-05-09T13:40:46.611Z,94355.50
2023-05-09T13:43:13.225Z,94353.94
2023-05-09T13:45:39.842Z,94353.38
2023-05-09T13:48:06.577Z,94358.00
2023-05-09T13:50:34.159Z,94355.84
2023-05-09T13:53:00.873Z,94364.44
2023-05-09T13:55:27.771Z,94361.28
2023-05-09T13:57:54.917Z,94364.94
2023-05-09T14:00:22.296Z,94360.88
2023-05-09T14:02:48.967Z,94355.88
2023-05-09T14:05:16.900Z,94359.47
2023-05-09T14:07:43.675Z,94360.63
2023-05-09T14:10:12.352Z,94355.66
2023-05-09T14:12:44.557Z,94356.28
2023-05-09T14:15:11.461Z,94362.94
2023-05-09T14:17:38.260Z,94363.91
2023-05-09T14:20:06.544Z,94359.66
2023-05-09T14:22:33.187Z,94370.53
2023-05-09T14:24:59.862Z,94370.00
2023-05-09T14:27:26.451Z,94358.94
2023-05-09T14:29:53.321Z,94363.28
2023-05-09T14:32:20.044Z,94374.59
2023-05-09T14:34:49.610Z,94357.22
2023-05-09T14:37:16.403Z,94356.22
2023-05-09T14:39:45.189Z,94354.63
2023-05-09T14:42:14.166Z,94354.78
2023-05-09T14:44:41.789Z,94353.09
2023-05-09T14:47:09.610Z,94361.53
2023-05-09T14:49:37.701Z,94367.59
2023-05-09T14:52:04.425Z,94364.69
2023-05-09T14:54:31.647Z,94360.19
2023-05-09T14:56:59.575Z,94372.88
2023-05-09T14:59:26.333Z,94376.97
2023-05-09T15:01:53.022Z,94363.06
2023-05-09T15:04:19.705Z,94373.13
2023-05-09T15:06:46.323Z,94363.63
2023-05-09T15:09:14.725Z,94365.50
2023-05-09T15:11:48.451Z,94366.59
2023-05-09T15:14:16.699Z,94361.91
2023-05-09T15:16:43.677Z,94370.75
2023-05-09T15:19:10.336Z,94382.69
2023-05-09T15:21:36.999Z,94367.06
2023-05-09T15:24:05.146Z,94361.16
2023-05-09T15:26:32.294Z,94365.88
2023-05-09T15:28:59.023Z,94368.66
2023-05-09T15:31:25.887Z,94362.66
2023-05-09T15:33:52.585Z,94363.94
2023-05-09T15:36:19.241Z,94365.69
2023-05-09T15:38:49.387Z,94362.47
2023-05-09T15:41:16.747Z,94375.28
2023-05-09T15:43:43.446Z,94368.03
2023-05-09T15:46:10.156Z,94369.09
2023-05-09T15:48:36.830Z,94377.97
2023-05-09T15:51:04.214Z,94375.25
2023-05-09T15:53:31.246Z,94377.47
2023-05-09T15:55:57.934Z,94369.88
2023-05-09T15:58:24.797Z,94385.44
2023-05-09T16:00:51.592Z,94382.09
2023-05-09T16:03:18.771Z,94377.25
2023-05-09T16:05:45.619Z,94374.94
2023-05-09T16:08:12.558Z,94368.31
2023-05-09T16:10:39.233Z,94372.84
2023-05-09T16:13:06.117Z,94378.88
2023-05-09T16:15:32.966Z,94382.56
2023-05-09T16:17:59.587Z,94374.66
2023-05-09T16:20:26.269Z,94382.03
2023-05-09T16:22:52.820Z,94384.47
2023-05-09T16:25:19.695Z,94384.94
2023-05-09T16:27:46.360Z,94389.97
2023-05-09T16:30:13.740Z,94381.84
2023-05-09T16:32:40.528Z,94397.31
2023-05-09T16:35:07.726Z,94403.66
2023-05-09T16:37:35.720Z,94400.69
2023-05-09T16:40:02.912Z,94401.47
2023-05-09T16:42:29.533Z,94403.59
2023-05-09T16:44:57.321Z,94403.91
2023-05-09T16:47:26.906Z,94405.34
2023-05-09T16:49:53.559Z,94402.41
2023-05-09T16:52:20.501Z,94393.19
2023-05-09T16:54:47.126Z,94400.53
2023-05-09T16:57:13.769Z,94399.06
2023-05-09T16:59:40.661Z,94392.81
2023-05-09T17:02:07.993Z,94408.44
2023-05-09T17:04:36.819Z,94404.34
2023-05-09T17:07:04.436Z,94398.63
2023-05-09T17:09:32.069Z,94407.41
2023-05-09T17:11:59.124Z,94405.13
2023-05-09T17:14:26.759Z,94404.59
2023-05-09T17:16:53.832Z,94409.75
2023-05-09T17:19:23.495Z,94407.41
2023-05-09T17:21:50.396Z,94400.63
2023-05-09T17:24:17.375Z,94408.53
2023-05-09T17:26:44.109Z,94415.28
2023-05-09T17:29:10.779Z,94419.66
2023-05-09T17:31:37.448Z,94418.69
2023-05-09T17:34:05.582Z,94421.38
2023-05-09T17:36:33.602Z,94420.47
2023-05-09T17:39:00.845Z,94421.13
2023-05-09T17:41:27.862Z,94418.88
2023-05-09T17:43:57.283Z,94423.53
2023-05-09T17:46:24.784Z,94416.31
2023-05-09T17:48:51.731Z,94422.28
2023-05-09T17:51:18.410Z,94423.78
2023-05-09T17:53:44.985Z,94431.16
2023-05-09T17:56:11.660Z,94428.56
2023-05-09T17:58:38.253Z,94426.63
2023-05-09T18:01:05.539Z,94435.38
2023-05-09T18:03:32.682Z,94422.88
2023-05-09T18:06:02.761Z,94430.56
2023-05-09T18:08:29.942Z,94437.53
2023-05-09T18:10:57.811Z,94440.09
2023-05-09T18:13:24.742Z,94436.38
2023-05-09T18:15:51.579Z,94441.97
2023-05-09T18:18:18.552Z,94439.38
2023-05-09T18:20:47.220Z,94445.97
2023-05-09T18:23:15.305Z,94448.22
2023-05-09T18:25:42.201Z,94450.94
2023-05-09T18:28:09.425Z,94450.63
2023-05-09T18:30:36.252Z,94453.31
2023-05-09T18:33:03.497Z,94448.59
2023-05-09T18:35:30.205Z,94456.25
2023-05-09T18:37:56.973Z,94454.09
2023-05-09T18:40:23.657Z,94456.84
2023-05-09T18:42:50.376Z,94456.19
2023-05-09T18:45:17.063Z,94446.56
2023-05-09T18:47:43.796Z,94450.47
2023-05-09T18:50:11.249Z,94448.78
2023-05-09T18:52:37.922Z,94455.59
2023-05-09T18:55:05.997Z,94447.63
2023-05-09T18:57:33.933Z,94452.78
2023-05-09T19:00:00.643Z,94451.09
2023-05-09T19:02:27.462Z,94459.06
2023-05-09T19:04:54.148Z,94454.72
2023-05-09T19:07:20.879Z,94454.25
2023-05-09T19:09:47.827Z,94460.47
2023-05-09T19:12:16.418Z,94463.38
2023-05-09T19:14:43.328Z,94461.91
2023-05-09T19:17:10.976Z,94462.94
2023-05-09T19:19:37.682Z,94456.84
2023-05-09T19:22:04.991Z,94469.94
2023-05-09T19:24:32.745Z,94466.38
2023-05-09T19:26:59.337Z,94463.25
2023-05-09T19:29:25.993Z,94458.91
2023-05-09T19:31:52.623Z,94457.94
2023-05-09T19:34:19.436Z,94462.81
2023-05-09T19:36:46.213Z,94461.44
2023-05-09T19:39:12.841Z,94461.97
2023-05-09T19:41:39.468Z,94459.00
2023-05-09T19:44:07.365Z,94460.84
2023-05-09T19:46:35.306Z,94461.78
2023-05-09T19:49:02.095Z,94457.63
2023-05-09T19:51:28.851Z,94454.28
2023-05-09T19:53:55.630Z,94456.69
2023-05-09T19:56:23.331Z,94454.88
2023-05-09T19:58:50.419Z,94466.59
2023-05-09T20:01:19.098Z,94454.41
2023-05-09T20:03:47.124Z,94453.00
2023-05-09T20:06:14.034Z,94455.81
2023-05-09T20:08:40.663Z,94454.44
2023-05-09T20:11:07.847Z,94458.22
2023-05-09T20:13:34.464Z,94457.63
2023-05-09T20:16:02.795Z,94454.34
2023-05-09T20:18:29.551Z,94452.50
2023-05-09T20:20:56.120Z,94449.38
2023-05-09T20:23:22.790Z,94454.63
2023-05-09T20:25:49.385Z,94454.09
2023-05-09T20:28:20.188Z,94449.25
2023-05-09T20:30:47.151Z,94448.34
2023-05-09T20:33:13.808Z,94447.19
2023-05-09T20:35:43.137Z,94454.28
2023-05-09T20:38:10.691Z,94441.88
2023-05-09T20:40:37.273Z,94446.50
2023-05-09T20:43:03.905Z,94443.34
2023-05-09T20:45:30.565Z,94447.06
2023-05-09T20:47:57.223Z,94447.19
2023-05-09T20:50:23.875Z,94441.91
2023-05-09T20:52:50.481Z,94436.91
2023-05-09T20:55:17.120Z,94434.41
2023-05-09T20:57:43.699Z,94430.13
2023-05-09T21:00:10.916Z,94435.50
2023-05-09T21:02:37.776Z,94436.38
2023-05-09T21:05:04.737Z,94430.88
2023-05-09T21:07:31.310Z,94430.53
2023-05-09T21:09:58.316Z,94420.50
2023-05-09T21:12:24.959Z,94428.00
2023-05-09T21:14:51.553Z,94430.09
2023-05-09T21:17:18.415Z,94426.53
2023-05-09T21:19:45.713Z,94425.41
2023-05-09T21:22:12.271Z,94426.09
2023-05-09T21:24:38.868Z,94425.06
2023-05-09T21:27:06.242Z,94423.53
2023-05-09T21:29:32.907Z,94423.41
2023-05-09T21:31:59.991Z,94425.94
2023-05-09T21:34:26.648Z,94428.84
2023-05-09T21:36:53.257Z,94422.88
2023-05-09T21:39:19.854Z,94418.13
2023-05-09T21:41:46.464Z,94427.09
2023-05-09T21:44:13.248Z,94413.81
2023-05-09T21:46:41.203Z,94415.66
2023-05-09T21:49:08.036Z,94416.28
2023-05-09T21:51:35.057Z,94412.91
2023-05-09T21:54:01.640Z,94413.78
2023-05-09T21:56:28.291Z,94415.16
2023-05-09T21:58:54.997Z,94411.31
2023-05-09T22:01:21.713Z,94414.03
2023-05-09T22:03:48.504Z,94410.72
2023-05-09T22:06:15.196Z,94403.63
2023-05-09T22:08:41.769Z,94403.59
2023-05-09T22:11:08.456Z,94401.50
2023-05-09T22:13:36.465Z,94399.72
2023-05-09T22:16:04.135Z,94397.03
2023-05-09T22:18:31.395Z,94394.00
2023-05-09T22:20:58.047Z,94391.72
2023-05-09T22:23:24.718Z,94393.56
2023-05-09T22:25:51.285Z,94386.59
2023-05-09T22:28:17.932Z,94394.09
2023-05-09T22:30:44.590Z,94393.19
2023-05-09T22:33:11.405Z,94394.53
2023-05-09T22:35:38.146Z,94397.88
2023-05-09T22:38:04.803Z,94393.25
2023-05-09T22:40:31.450Z,94387.63
2023-05-09T22:42:58.035Z,94388.16
2023-05-09T22:45:24.648Z,94380.38
2023-05-09T22:47:51.313Z,94382.31
2023-05-09T22:50:18.173Z,94376.44
2023-05-09T22:52:44.939Z,94372.03
2023-05-09T22:55:11.824Z,94375.25
2023-05-09T22:57:38.508Z,94375.75
2023-05-09T23:00:06.099Z,94368.66
2023-05-09T23:02:32.832Z,94370.69
2023-05-09T23:04:59.562Z,94367.84
2023-05-09T23:07:26.473Z,94359.19
2023-05-09T23:09:53.119Z,94360.56
2023-05-09T23:12:19.891Z,94361.78
2023-05-09T23:14:46.823Z,94360.22
2023-05-09T23:17:13.469Z,94362.34
2023-05-09T23:19:40.151Z,94357.47
2023-05-09T23:22:06.849Z,94357.78
2023-05-09T23:24:33.494Z,94365.31
2023-05-09T23:27:02.535Z,94360.16
2023-05-09T23:29:29.288Z,94359.28
2023-05-09T23:31:55.995Z,94352.28
2023-05-09T23:34:22.704Z,94353.59
2023-05-09T23:36:49.340Z,94359.69
2023-05-09T23:39:16.052Z,94361.38
2023-05-09T23:41:42.886Z,94350.34
2023-05-09T23:44:09.507Z,94356.34
2023-05-09T23:46:36.152Z,94351.75
2023-05-09T23:49:02.903Z,94357.38
2023-05-09T23:51:29.561Z,94344.94
2023-05-09T23:53:56.154Z,94351.75
2023-05-09T23:56:22.922Z,94344.34
2023-05-09T23:58:49.533Z,94345.75
